Time;durP1;ratioP1;P1;durP2;ratioP2;P2;SDS_P1;SDS_P2;PMS_P1;PMS_P2;Temp;Humidity;BMP_temperature;BMP_pressure;BME280_temperature;BME280_humidity;BME280_pressure;Samples;Min_cycle;Max_cycle;Signal;HPM_P1;HPM_P2
2021/12/24 00:02:18;;;;;;;134.48;35.47;;;6.60;97.90;;;;;;6188760;23;20018;-87
2021/12/24 00:04:47;;;;;;;157.57;36.95;;;6.60;97.90;;;;;;6187733;23;20030;-86
2021/12/24 00:07:14;;;;;;;158.77;36.38;;;6.60;97.90;;;;;;6188744;23;20028;-87
2021/12/24 00:09:44;;;;;;;126.22;33.78;;;6.70;97.90;;;;;;6189326;23;20025;-86
2021/12/24 00:12:18;;;;;;;146.52;35.15;;;6.70;97.90;;;;;;6189440;23;20090;-86
2021/12/24 00:14:51;;;;;;;165.80;35.42;;;6.70;98.00;;;;;;6189216;23;20009;-86
2021/12/24 00:17:25;;;;;;;131.57;33.67;;;6.70;97.90;;;;;;6191760;23;20041;-86
2021/12/24 00:36:17;;;;;;;83.38;27.30;;;6.90;97.90;;;;;;6187438;23;20049;-86
2021/12/24 00:38:44;;;;;;;84.90;27.48;;;6.90;97.90;;;;;;6187048;23;20076;-85
2021/12/24 00:41:15;;;;;;;92.93;27.05;;;6.90;97.90;;;;;;6186839;23;20077;-86
2021/12/24 00:43:42;;;;;;;85.75;27.15;;;6.90;97.90;;;;;;6186588;23;20017;-86
2021/12/24 00:46:08;;;;;;;83.10;27.15;;;7.00;97.90;;;;;;6186637;23;20025;-86
2021/12/24 00:48:38;;;;;;;85.30;26.88;;;6.90;97.90;;;;;;6160470;23;20021;-86
2021/12/24 00:51:20;;;;;;;80.13;26.58;;;7.00;97.80;;;;;;6186975;23;20030;-87
2021/12/24 00:56:19;;;;;;;86.87;27.47;;;7.10;97.90;;;;;;6187176;23;20040;-86
2021/12/24 00:58:47;;;;;;;82.47;27.05;;;7.10;97.90;;;;;;6187090;23;20056;-87
2021/12/24 01:01:16;;;;;;;92.28;30.90;;;7.10;97.90;;;;;;6187404;23;20514;-86
2021/12/24 01:03:43;;;;;;;78.65;27.40;;;7.10;97.90;;;;;;6187153;23;20090;-87
2021/12/24 01:06:10;;;;;;;78.03;26.98;;;7.10;97.90;;;;;;6160983;23;20056;-87
2021/12/24 01:08:46;;;;;;;112.30;29.70;;;7.20;97.90;;;;;;6186491;23;20018;-86
2021/12/24 01:11:13;;;;;;;93.53;29.65;;;7.10;97.90;;;;;;6186414;23;20108;-86
2021/12/24 01:13:44;;;;;;;81.82;26.98;;;7.20;98.00;;;;;;6186868;23;20697;-87
2021/12/24 01:16:24;;;;;;;103.88;29.35;;;7.20;97.90;;;;;;6185793;23;20715;-86
2021/12/24 01:19:06;;;;;;;82.63;26.13;;;7.30;98.00;;;;;;6186993;23;20829;-86
2021/12/24 01:24:21;;;;;;;120.80;28.38;;;7.30;98.10;;;;;;6186412;23;20080;-86
2021/12/24 01:27:00;;;;;;;75.40;25.02;;;7.40;98.10;;;;;;6161192;23;20088;-87
2021/12/24 01:40:40;;;;;;;117.90;28.38;;;7.50;98.20;;;;;;6186427;23;20072;-86
2021/12/24 01:43:05;;;;;;;90.25;26.83;;;7.60;98.10;;;;;;6186541;23;20100;-86
2021/12/24 01:45:35;;;;;;;113.78;29.38;;;7.60;98.10;;;;;;6187802;23;20024;-86
2021/12/24 01:48:07;;;;;;;113.75;30.60;;;7.70;98.20;;;;;;6187668;23;20076;-86
2021/12/24 01:50:36;;;;;;;118.55;29.27;;;7.70;98.10;;;;;;6188037;23;20830;-86
2021/12/24 01:53:05;;;;;;;103.10;28.58;;;7.70;98.20;;;;;;6188091;23;20017;-86
2021/12/24 01:55:36;;;;;;;112.80;28.85;;;7.70;98.20;;;;;;6188076;23;20079;-86
2021/12/24 01:58:03;;;;;;;105.70;29.33;;;7.80;98.20;;;;;;6187811;23;20093;-86
2021/12/24 02:00:40;;;;;;;123.35;32.13;;;7.80;98.20;;;;;;6188170;23;20022;-86
2021/12/24 02:03:08;;;;;;;112.97;31.83;;;7.80;98.20;;;;;;6188107;23;20021;-86
2021/12/24 02:05:36;;;;;;;134.55;33.60;;;7.80;98.20;;;;;;6186679;23;20085;-86
2021/12/24 02:08:03;;;;;;;130.05;34.08;;;7.90;98.20;;;;;;6161459;23;20615;-86
2021/12/24 02:10:33;;;;;;;146.52;35.15;;;7.90;98.20;;;;;;6187861;23;20025;-86
2021/12/24 02:13:02;;;;;;;164.80;37.85;;;7.90;98.20;;;;;;6187341;23;20826;-86
2021/12/24 02:15:46;;;;;;;122.55;36.05;;;7.90;98.20;;;;;;6187227;23;20857;-87
2021/12/24 02:18:46;;;;;;;162.93;38.55;;;8.00;98.20;;;;;;6161846;23;20112;-86
2021/12/24 02:29:31;;;;;;;139.35;38.25;;;8.20;98.30;;;;;;6187603;23;20009;-86
2021/12/24 02:32:01;;;;;;;132.18;37.00;;;8.20;98.20;;;;;;6160349;23;20025;-86
2021/12/24 02:34:31;;;;;;;131.25;38.92;;;8.30;98.30;;;;;;6161191;23;20033;-86
2021/12/24 02:37:03;;;;;;;145.77;38.88;;;8.30;98.30;;;;;;6160939;23;20033;-86
2021/12/24 02:39:31;;;;;;;104.10;33.83;;;8.40;98.20;;;;;;6187490;23;20136;-86
2021/12/24 02:42:16;;;;;;;108.40;34.45;;;8.50;98.30;;;;;;6187875;23;20026;-86
2021/12/24 02:44:45;;;;;;;98.68;32.15;;;8.60;98.30;;;;;;6161328;23;20068;-86
2021/12/24 02:55:10;;;;;;;84.53;28.27;;;8.70;98.30;;;;;;6187837;23;20025;-86
2021/12/24 02:57:39;;;;;;;66.25;25.38;;;8.80;98.20;;;;;;6187758;23;20025;-86
2021/12/24 03:00:15;;;;;;;77.88;26.15;;;8.80;98.20;;;;;;6160920;23;20092;-87
2021/12/24 03:02:44;;;;;;;58.78;24.63;;;8.80;98.20;;;;;;6161978;23;20025;-86
2021/12/24 03:05:13;;;;;;;73.40;25.85;;;8.80;98.00;;;;;;6187699;23;20073;-86
2021/12/24 03:07:41;;;;;;;75.07;24.05;;;8.80;98.00;;;;;;6187312;23;20022;-86
2021/12/24 03:10:16;;;;;;;71.63;23.50;;;8.80;98.00;;;;;;6187226;23;20112;-86
2021/12/24 03:12:47;;;;;;;63.08;21.38;;;8.80;97.90;;;;;;6161687;23;20022;-86
2021/12/24 03:19:08;;;;;;;46.50;18.30;;;8.80;97.80;;;;;;6136748;23;20027;-86
2021/12/24 03:21:45;;;;;;;65.03;20.73;;;8.80;97.60;;;;;;6187192;23;20104;-86
2021/12/24 03:26:45;;;;;;;62.13;19.17;;;8.80;97.40;;;;;;6187073;23;20052;-86
2021/12/24 03:29:13;;;;;;;60.97;20.27;;;8.80;97.30;;;;;;6160753;23;20045;-86
2021/12/24 03:31:43;;;;;;;55.75;18.13;;;8.80;97.30;;;;;;6159703;23;20025;-86
2021/12/24 03:34:13;;;;;;;70.78;18.90;;;8.80;97.30;;;;;;6187093;23;20026;-85
2021/12/24 03:36:41;;;;;;;45.80;19.00;;;8.80;97.20;;;;;;6160541;23;20821;-86
2021/12/24 03:39:09;;;;;;;50.47;17.33;;;8.80;97.20;;;;;;6160478;23;20028;-86
2021/12/24 03:41:37;;;;;;;48.15;17.13;;;8.80;97.20;;;;;;6160232;23;20021;-86
2021/12/24 03:44:06;;;;;;;58.55;18.45;;;8.80;97.10;;;;;;6186825;23;20056;-86
2021/12/24 03:46:44;;;;;;;53.53;17.50;;;8.80;97.00;;;;;;6186762;23;20025;-86
2021/12/24 03:49:20;;;;;;;61.63;18.40;;;8.80;97.00;;;;;;6187116;23;20026;-86
2021/12/24 03:51:57;;;;;;;47.08;18.02;;;8.70;97.00;;;;;;6161789;23;20029;-86
2021/12/24 03:57:16;;;;;;;52.75;18.50;;;8.80;97.00;;;;;;6187013;23;20719;-86
2021/12/24 03:59:43;;;;;;;52.88;18.08;;;8.70;97.00;;;;;;6161338;23;20026;-86
2021/12/24 04:02:12;;;;;;;63.35;18.50;;;8.80;97.00;;;;;;6161095;23;20061;-86
2021/12/24 04:04:39;;;;;;;60.85;17.52;;;8.70;97.10;;;;;;6160397;23;20024;-86
2021/12/24 04:07:06;;;;;;;43.90;17.15;;;8.70;97.00;;;;;;6187185;23;20139;-86
2021/12/24 04:09:36;;;;;;;46.17;15.95;;;8.70;97.00;;;;;;6187171;23;20025;-86
2021/12/24 04:12:06;;;;;;;45.85;16.85;;;8.70;97.00;;;;;;6160506;23;20029;-86
2021/12/24 04:14:33;;;;;;;46.95;16.58;;;8.70;97.00;;;;;;6186876;23;20022;-86
2021/12/24 04:17:00;;;;;;;46.60;17.17;;;8.70;96.90;;;;;;6186985;23;20359;-87
2021/12/24 04:25:01;;;;;;;38.03;15.00;;;8.70;96.90;;;;;;6186989;23;20021;-86
2021/12/24 04:27:34;;;;;;;39.88;14.32;;;8.70;96.80;;;;;;6186768;23;20025;-86
2021/12/24 04:30:09;;;;;;;46.67;14.35;;;8.70;96.80;;;;;;6186333;23;20022;-86
2021/12/24 04:35:32;;;;;;;41.20;15.38;;;8.60;96.70;;;;;;6187078;23;20073;-86
2021/12/24 04:51:51;;;;;;;50.30;14.25;;;8.60;96.60;;;;;;6186597;23;20022;-86
2021/12/24 05:02:56;;;;;;;38.03;12.25;;;8.50;96.60;;;;;;6186456;23;20080;-86
2021/12/24 05:05:37;;;;;;;32.83;11.82;;;8.50;96.50;;;;;;6159894;23;20084;-87
2021/12/24 05:10:41;;;;;;;35.05;11.43;;;8.60;96.50;;;;;;6186782;23;20030;-86
2021/12/24 05:13:13;;;;;;;38.63;12.07;;;8.50;96.50;;;;;;6186497;23;20064;-86
2021/12/24 05:15:42;;;;;;;42.80;11.60;;;8.50;96.50;;;;;;6186681;23;20793;-87
2021/12/24 05:21:36;;;;;;;42.05;10.55;;;8.50;96.20;;;;;;6066710;23;20080;-86
2021/12/24 05:24:06;;;;;;;35.42;10.77;;;8.50;96.20;;;;;;6067143;23;20027;-86
2021/12/24 05:26:34;;;;;;;38.42;10.73;;;8.60;96.00;;;;;;6066572;23;20034;-87
2021/12/24 05:29:03;;;;;;;30.35;9.45;;;8.50;95.90;;;;;;6067003;23;20030;-86
2021/12/24 05:31:30;;;;;;;34.15;9.65;;;8.50;95.80;;;;;;6066842;23;20027;-86
2021/12/24 05:34:00;;;;;;;30.38;8.50;;;8.50;95.90;;;;;;6066540;23;20035;-86
2021/12/24 05:36:27;;;;;;;33.17;9.65;;;8.50;95.80;;;;;;6043261;23;20065;-86
2021/12/24 05:38:56;;;;;;;29.95;8.98;;;8.50;95.90;;;;;;6044100;23;20106;-86
2021/12/24 05:41:23;;;;;;;38.85;9.07;;;8.40;95.80;;;;;;6067507;23;20026;-87
2021/12/24 05:43:51;;;;;;;33.88;8.15;;;8.50;95.80;;;;;;6067418;23;20461;-87
2021/12/24 05:46:24;;;;;;;38.17;8.68;;;8.40;95.70;;;;;;6066320;23;20106;-86
2021/12/24 05:48:51;;;;;;;38.55;7.60;;;8.40;95.60;;;;;;6066906;23;20050;-86
2021/12/24 05:51:19;;;;;;;37.05;7.95;;;8.40;95.60;;;;;;6087302;23;20072;-86
2021/12/24 05:53:47;;;;;;;28.85;7.95;;;8.40;95.30;;;;;;6187424;23;20043;-86
2021/12/24 05:56:14;;;;;;;33.97;7.90;;;8.40;95.20;;;;;;6187303;23;20033;-86
2021/12/24 05:58:41;;;;;;;24.15;6.82;;;8.30;95.30;;;;;;6186912;23;20395;-86
2021/12/24 06:01:08;;;;;;;36.20;7.65;;;8.30;95.20;;;;;;6161402;23;20136;-85
2021/12/24 06:03:41;;;;;;;36.55;8.02;;;8.30;95.30;;;;;;6161797;23;20117;-86
2021/12/24 06:06:07;;;;;;;30.83;7.53;;;8.30;95.00;;;;;;6187031;23;20587;-86
2021/12/24 06:08:34;;;;;;;30.65;7.18;;;8.20;95.20;;;;;;6187665;23;20017;-86
2021/12/24 06:11:04;;;;;;;33.40;7.45;;;8.20;95.10;;;;;;6186936;23;20025;-86
2021/12/24 06:13:31;;;;;;;26.92;6.68;;;8.20;95.00;;;;;;6186992;23;20032;-86
2021/12/24 06:16:05;;;;;;;30.85;7.05;;;8.10;95.00;;;;;;6187388;23;20036;-86
2021/12/24 06:18:33;;;;;;;24.98;7.07;;;8.10;95.20;;;;;;6161523;23;20076;-86
2021/12/24 06:21:06;;;;;;;25.40;8.00;;;8.10;95.30;;;;;;6186701;23;20108;-86
2021/12/24 06:26:57;;;;;;;26.45;6.45;;;8.10;95.30;;;;;;6153578;23;19924;-86
2021/12/24 06:29:31;;;;;;;30.67;6.93;;;8.10;95.30;;;;;;6188925;23;20078;-86
2021/12/24 06:32:02;;;;;;;24.50;6.78;;;8.10;95.40;;;;;;6165080;23;20681;-86
2021/12/24 06:34:32;;;;;;;32.00;7.70;;;8.10;95.30;;;;;;6190929;23;20400;-86
2021/12/24 06:37:02;;;;;;;38.88;7.95;;;8.10;95.30;;;;;;6189897;23;20016;-86
2021/12/24 06:39:32;;;;;;;26.15;6.72;;;8.10;95.30;;;;;;6188352;23;20353;-86
2021/12/24 06:42:02;;;;;;;26.35;7.80;;;8.10;95.20;;;;;;6187087;23;20026;-86
2021/12/24 06:44:33;;;;;;;25.67;7.60;;;8.10;95.10;;;;;;6186835;23;20025;-86
2021/12/24 06:47:00;;;;;;;31.33;7.40;;;8.00;95.10;;;;;;6187889;23;20049;-86
2021/12/24 06:49:31;;;;;;;27.20;7.22;;;8.10;95.00;;;;;;6188192;23;20474;-85
2021/12/24 06:52:04;;;;;;;34.70;8.68;;;8.10;95.10;;;;;;6187514;23;20655;-86
2021/12/24 06:54:33;;;;;;;34.30;9.45;;;8.10;94.80;;;;;;6187322;23;20868;-86
2021/12/24 06:57:01;;;;;;;29.75;8.45;;;8.10;94.80;;;;;;6160953;23;20029;-86
2021/12/24 06:59:31;;;;;;;40.85;8.30;;;8.10;94.90;;;;;;6161073;23;20068;-86
2021/12/24 07:02:00;;;;;;;34.20;7.68;;;8.10;95.00;;;;;;6187322;23;20035;-86
2021/12/24 07:04:30;;;;;;;30.13;7.97;;;8.10;95.20;;;;;;6186363;23;20021;-86
2021/12/24 07:06:57;;;;;;;34.20;7.82;;;8.00;95.00;;;;;;6187147;23;20032;-86
2021/12/24 07:09:25;;;;;;;36.15;8.43;;;8.00;95.10;;;;;;6161436;23;20048;-86
2021/12/24 07:11:59;;;;;;;33.53;8.27;;;8.00;95.20;;;;;;6187331;23;20021;-86
2021/12/24 07:14:33;;;;;;;31.27;7.72;;;8.00;95.20;;;;;;6189657;23;20109;-86
2021/12/24 07:17:00;;;;;;;34.80;7.60;;;8.00;95.10;;;;;;6187225;23;20080;-86
2021/12/24 07:19:28;;;;;;;31.23;7.75;;;8.00;95.20;;;;;;6186715;23;20041;-86
2021/12/24 07:21:57;;;;;;;38.13;7.93;;;8.00;95.20;;;;;;6187068;23;20022;-86
2021/12/24 07:24:26;;;;;;;33.58;7.82;;;8.00;95.20;;;;;;6187099;23;20025;-85
2021/12/24 07:26:55;;;;;;;43.88;8.68;;;8.00;95.00;;;;;;6186976;23;20598;-86
2021/12/24 07:29:22;;;;;;;34.58;8.00;;;8.00;95.10;;;;;;6189651;23;20021;-85
2021/12/24 07:31:49;;;;;;;32.45;7.90;;;8.00;95.10;;;;;;6186752;23;20355;-87
2021/12/24 07:34:18;;;;;;;33.92;8.63;;;7.90;95.00;;;;;;6160869;23;20022;-85
2021/12/24 07:36:45;;;;;;;34.13;8.35;;;7.90;95.10;;;;;;6186423;23;20033;-85
2021/12/24 07:39:12;;;;;;;35.65;8.05;;;7.90;95.00;;;;;;6185503;23;20128;-85
2021/12/24 07:41:42;;;;;;;42.28;8.27;;;7.90;94.80;;;;;;6186001;23;20081;-85
2021/12/24 07:44:09;;;;;;;34.78;8.82;;;7.90;95.00;;;;;;6185735;23;20215;-85
2021/12/24 07:46:44;;;;;;;38.40;8.32;;;7.90;94.90;;;;;;6185986;23;20025;-85
2021/12/24 07:49:48;;;;;;;31.95;8.00;;;7.90;94.80;;;;;;6186105;23;20025;-85
2021/12/24 07:54:43;;;;;;;40.85;8.05;;;7.90;94.80;;;;;;6186619;23;20021;-85
2021/12/24 07:57:12;;;;;;;42.70;8.13;;;7.90;94.90;;;;;;6186858;23;20359;-86
2021/12/24 07:59:41;;;;;;;33.60;7.75;;;7.90;94.80;;;;;;6186901;23;20017;-85
2021/12/24 08:02:11;;;;;;;35.75;7.72;;;7.90;94.80;;;;;;6160714;23;20025;-86
2021/12/24 08:04:39;;;;;;;30.98;8.32;;;7.90;94.90;;;;;;6187075;23;20025;-86
2021/12/24 08:07:07;;;;;;;30.20;7.90;;;7.80;94.60;;;;;;6189514;23;20431;-86
2021/12/24 08:09:37;;;;;;;38.78;8.25;;;7.90;94.70;;;;;;6186353;23;20052;-86
2021/12/24 08:12:09;;;;;;;33.55;7.13;;;7.90;94.60;;;;;;6186400;23;20017;-85
2021/12/24 08:14:40;;;;;;;29.15;7.72;;;7.90;94.70;;;;;;6187220;23;20076;-85
2021/12/24 08:17:07;;;;;;;36.72;8.40;;;7.90;94.90;;;;;;6185110;23;20033;-86
2021/12/24 08:19:34;;;;;;;27.20;7.90;;;7.90;94.70;;;;;;6160141;23;20773;-86
2021/12/24 08:22:01;;;;;;;41.42;8.77;;;7.90;94.70;;;;;;6186658;23;20108;-85
2021/12/24 08:24:38;;;;;;;31.67;8.52;;;7.90;94.70;;;;;;6160823;23;20800;-86
2021/12/24 08:27:06;;;;;;;42.28;8.10;;;7.90;94.40;;;;;;6160588;23;20108;-86
2021/12/24 08:29:33;;;;;;;39.08;8.23;;;7.90;94.70;;;;;;6186901;23;20025;-85
2021/12/24 08:32:03;;;;;;;38.45;8.35;;;7.90;94.70;;;;;;6186651;23;20092;-86
2021/12/24 08:34:30;;;;;;;35.22;8.23;;;7.90;94.70;;;;;;6188544;23;20032;-85
2021/12/24 08:36:57;;;;;;;32.40;8.27;;;7.90;94.70;;;;;;6186269;23;20030;-85
2021/12/24 08:39:24;;;;;;;43.65;8.20;;;7.90;94.40;;;;;;6186808;23;20025;-85
2021/12/24 08:41:54;;;;;;;29.90;7.32;;;8.00;94.70;;;;;;6185204;23;20608;-85
2021/12/24 08:44:31;;;;;;;27.02;7.45;;;7.90;94.70;;;;;;6160427;23;20104;-85
2021/12/24 08:47:01;;;;;;;;;;;7.90;94.60;;;;;;6161176;23;20113;-85
2021/12/24 08:49:29;;;;;;;33.65;7.60;;;7.90;94.60;;;;;;6161658;23;20677;-85
2021/12/24 08:52:00;;;;;;;39.20;7.22;;;8.00;94.70;;;;;;6189177;23;20032;-86
2021/12/24 08:54:30;;;;;;;30.92;7.38;;;8.00;94.60;;;;;;6191522;23;20026;-85
2021/12/24 08:57:00;;;;;;;32.25;7.03;;;8.00;94.60;;;;;;6193386;23;20037;-86
2021/12/24 08:59:30;;;;;;;38.10;7.20;;;8.00;94.70;;;;;;6187952;23;20104;-86
2021/12/24 09:02:24;;;;;;;32.45;6.97;;;8.00;94.60;;;;;;6185398;23;20049;-85
2021/12/24 09:04:51;;;;;;;33.78;6.93;;;8.00;94.50;;;;;;6187663;23;20029;-86
2021/12/24 09:07:18;;;;;;;34.08;7.88;;;8.00;94.50;;;;;;6187719;23;20026;-86
2021/12/24 09:09:46;;;;;;;32.33;7.45;;;7.90;94.30;;;;;;6187266;23;20762;-85
2021/12/24 09:12:17;;;;;;;31.00;7.03;;;7.90;94.50;;;;;;6162529;23;20021;-86
2021/12/24 09:14:44;;;;;;;30.85;7.97;;;7.80;94.20;;;;;;6187768;23;20080;-86
2021/12/24 09:17:11;;;;;;;29.05;7.65;;;7.80;94.00;;;;;;6187385;23;20174;-86
2021/12/24 09:19:51;;;;;;;33.08;8.20;;;7.80;94.40;;;;;;6186580;23;20117;-86
2021/12/24 09:22:19;;;;;;;31.38;8.50;;;7.80;94.40;;;;;;6161159;23;20474;-85
2021/12/24 09:24:50;;;;;;;34.80;8.98;;;7.70;94.20;;;;;;6186160;23;20026;-86
2021/12/24 09:27:19;;;;;;;32.67;9.23;;;7.70;94.40;;;;;;6160341;23;20037;-86
2021/12/24 09:29:46;;;;;;;36.67;9.45;;;7.70;94.50;;;;;;6186484;23;20041;-85
2021/12/24 09:32:14;;;;;;;45.40;10.68;;;7.60;94.40;;;;;;6187131;23;20455;-86
2021/12/24 09:34:41;;;;;;;32.92;9.52;;;7.60;94.40;;;;;;6187183;23;20021;-86
2021/12/24 09:37:08;;;;;;;36.45;9.30;;;7.60;94.60;;;;;;6185839;23;20131;-86
2021/12/24 09:39:35;;;;;;;34.63;9.70;;;7.70;94.70;;;;;;6187838;23;20414;-86
2021/12/24 09:42:05;;;;;;;35.65;9.50;;;7.60;94.60;;;;;;6187662;23;20140;-86
2021/12/24 09:44:32;;;;;;;42.33;9.55;;;7.70;94.70;;;;;;6187058;23;20069;-85
2021/12/24 09:47:05;;;;;;;38.38;11.00;;;7.70;94.80;;;;;;6161099;23;20026;-85
2021/12/24 09:50:04;;;;;;;38.60;11.10;;;7.60;94.70;;;;;;6187851;23;20025;-85
2021/12/24 09:53:14;;;;;;;34.25;10.05;;;7.60;94.80;;;;;;6164072;23;20048;-85
2021/12/24 09:56:04;;;;;;;35.20;10.32;;;7.70;95.00;;;;;;6162423;23;20028;-85
2021/12/24 09:58:44;;;;;;;40.25;11.05;;;7.70;94.90;;;;;;6162205;23;20057;-84
2021/12/24 10:01:54;;;;;;;43.35;10.75;;;7.70;95.00;;;;;;6187619;23;20467;-85
2021/12/24 10:04:42;;;;;;;43.00;10.95;;;7.70;95.20;;;;;;6179696;23;20415;-85
2021/12/24 10:07:16;;;;;;;42.28;10.90;;;7.70;95.20;;;;;;6187488;23;20041;-85
2021/12/24 10:10:07;;;;;;;41.83;11.23;;;7.70;95.40;;;;;;6161565;23;20025;-85
2021/12/24 10:12:36;;;;;;;44.85;11.80;;;7.70;95.40;;;;;;6187831;23;20014;-86
2021/12/24 10:15:21;;;;;;;38.40;10.98;;;7.70;95.50;;;;;;6191096;23;20017;-85
2021/12/24 10:18:40;;;;;;;40.92;11.23;;;7.70;95.50;;;;;;6190623;23;20045;-86
2021/12/24 10:21:20;;;;;;;33.35;11.20;;;7.70;95.50;;;;;;6153894;23;20060;-86
2021/12/24 10:24:04;;;;;;;42.13;9.80;;;7.70;95.60;;;;;;6159692;23;20672;-86
2021/12/24 10:26:53;;;;;;;44.20;9.82;;;7.70;95.70;;;;;;6160505;23;20028;-86
2021/12/24 10:29:41;;;;;;;37.20;9.43;;;7.70;95.70;;;;;;6156621;23;20109;-86
2021/12/24 10:32:45;;;;;;;40.90;10.68;;;7.70;95.70;;;;;;6160811;23;20053;-86
2021/12/24 10:35:22;;;;;;;;;;;7.70;95.70;;;;;;6162119;23;20021;-87
2021/12/24 10:38:10;;;;;;;31.98;9.43;;;7.70;95.80;;;;;;6160505;23;19992;-86
2021/12/24 10:40:55;;;;;;;30.10;10.73;;;7.70;95.90;;;;;;6159956;23;20109;-86
2021/12/24 10:43:33;;;;;;;;;;;7.80;95.90;;;;;;6158945;23;20034;-86
2021/12/24 10:46:22;;;;;;;45.72;11.55;;;7.80;95.90;;;;;;6160779;23;20021;-86
2021/12/24 10:49:04;;;;;;;31.48;11.15;;;7.80;96.00;;;;;;6160344;23;20021;-86
2021/12/24 10:55:05;;;;;;;53.13;11.05;;;7.80;95.90;;;;;;6153985;23;20022;-86
2021/12/24 10:57:43;;;;;;;38.55;9.77;;;7.80;95.90;;;;;;6133785;23;20020;-85
2021/12/24 11:00:53;;;;;;;48.90;11.23;;;7.80;95.80;;;;;;6159216;23;20018;-85
2021/12/24 11:03:32;;;;;;;;;;;7.80;95.80;;;;;;6125581;23;20575;-86
2021/12/24 11:06:11;;;;;;;35.15;11.20;;;7.90;95.80;;;;;;6126651;23;19929;-85
2021/12/24 11:09:05;;;;;;;42.95;10.55;;;8.00;95.80;;;;;;6010753;23;20068;-85
2021/12/24 11:11:47;;;;;;;40.30;10.70;;;8.10;95.90;;;;;;6009093;23;20034;-86
2021/12/24 11:14:28;;;;;;;43.90;10.82;;;8.10;95.90;;;;;;6009966;23;20024;-85
2021/12/24 11:17:10;;;;;;;39.95;10.93;;;8.10;95.90;;;;;;6010969;23;20221;-85
2021/12/24 11:19:51;;;;;;;44.35;11.02;;;8.20;95.90;;;;;;6007009;23;20261;-85
2021/12/24 11:22:53;;;;;;;53.35;11.73;;;8.30;96.00;;;;;;6010227;23;20072;-86
2021/12/24 11:25:48;;;;;;;48.03;10.23;;;8.40;95.90;;;;;;6011043;23;20028;-86
2021/12/24 11:28:34;;;;;;;46.67;10.50;;;8.40;95.80;;;;;;6126911;23;20030;-85
2021/12/24 11:31:24;;;;;;;37.60;9.65;;;8.40;95.70;;;;;;6126332;23;20018;-86
2021/12/24 11:34:00;;;;;;;38.25;8.88;;;8.40;95.60;;;;;;6102485;23;20097;-85
2021/12/24 11:36:36;;;;;;;43.38;9.23;;;8.40;95.60;;;;;;6126022;23;20018;-85
2021/12/24 11:39:22;;;;;;;36.25;10.13;;;8.40;95.20;;;;;;6129177;23;20010;-85
2021/12/24 11:41:56;;;;;;;30.85;8.98;;;8.50;95.30;;;;;;6157555;23;20024;-85
2021/12/24 11:44:35;;;;;;;;;;;;;;;;;;;;;
2021/12/24 11:47:04;;;;;;;32.15;8.85;;;8.60;95.30;;;;;;6157878;23;20024;-86
2021/12/24 11:49:40;;;;;;;32.95;8.60;;;8.60;95.20;;;;;;6182341;23;20109;-86
2021/12/24 11:52:09;;;;;;;41.00;8.75;;;8.60;95.20;;;;;;6182053;23;20353;-87
2021/12/24 11:54:39;;;;;;;39.75;8.38;;;8.70;95.00;;;;;;6155312;23;20026;-85
2021/12/24 11:57:19;;;;;;;34.28;8.85;;;8.60;95.00;;;;;;6156440;23;20014;-86
2021/12/24 11:59:55;;;;;;;36.42;7.88;;;8.70;95.00;;;;;;6154809;23;20782;-85
2021/12/24 12:03:31;;;;;;;32.78;7.78;;;8.70;95.00;;;;;;6156206;23;20868;-85
2021/12/24 12:06:15;;;;;;;42.17;8.25;;;8.70;94.90;;;;;;6144926;23;20029;-86
2021/12/24 12:09:06;;;;;;;38.10;7.32;;;8.60;94.80;;;;;;6156227;23;20018;-86
2021/12/24 12:11:41;;;;;;;33.67;7.07;;;8.60;94.90;;;;;;6156565;23;20034;-85
2021/12/24 12:14:25;;;;;;;27.30;6.80;;;8.60;94.90;;;;;;6157461;23;20100;-85
2021/12/24 12:17:01;;;;;;;26.45;7.45;;;8.60;94.40;;;;;;6158306;23;20030;-86
2021/12/24 12:19:47;;;;;;;42.38;8.32;;;8.60;94.70;;;;;;6156587;23;20069;-85
2021/12/24 12:25:28;;;;;;;35.67;7.80;;;8.50;94.70;;;;;;6157918;23;20046;-85
2021/12/24 12:28:10;;;;;;;48.42;8.07;;;8.50;95.00;;;;;;6158101;23;20022;-86
2021/12/24 12:30:58;;;;;;;32.22;7.82;;;8.40;95.00;;;;;;6156367;23;20021;-82
2021/12/24 12:33:41;;;;;;;38.78;8.82;;;8.50;95.20;;;;;;6156747;23;20033;-81
2021/12/24 12:36:14;;;;;;;26.15;7.55;;;8.50;95.20;;;;;;6158574;23;20032;-81
2021/12/24 12:39:31;;;;;;;35.10;8.18;;;8.50;95.20;;;;;;6165297;23;20143;-84
2021/12/24 12:42:04;;;;;;;47.85;8.10;;;8.50;95.10;;;;;;6157687;23;20022;-85
2021/12/24 12:44:39;;;;;;;44.17;8.13;;;8.50;95.00;;;;;;6158751;23;20026;-85
2021/12/24 12:47:18;;;;;;;31.15;7.70;;;8.50;95.00;;;;;;6160345;23;20106;-85
2021/12/24 12:50:14;;;;;;;41.70;7.95;;;8.50;95.00;;;;;;6156655;23;20028;-85
2021/12/24 12:53:41;;;;;;;31.40;7.43;;;8.50;95.20;;;;;;6144677;23;20866;-85
2021/12/24 12:57:33;;;;;;;31.98;7.25;;;8.40;95.10;;;;;;6157439;23;20037;-85
2021/12/24 13:00:39;;;;;;;34.20;7.47;;;8.40;95.20;;;;;;6153113;23;20033;-85
2021/12/24 13:03:32;;;;;;;37.67;7.38;;;8.40;95.20;;;;;;6156502;23;20030;-85
2021/12/24 13:06:25;;;;;;;36.25;7.63;;;8.40;95.30;;;;;;6143950;23;20101;-85
2021/12/24 13:09:32;;;;;;;35.65;8.05;;;8.40;95.40;;;;;;6157281;23;20115;-85
2021/12/24 13:12:16;;;;;;;46.53;9.13;;;8.30;95.40;;;;;;6155067;23;20491;-85
2021/12/24 13:15:15;;;;;;;;;;;;;;;;;;;;;
2021/12/24 13:18:35;;;;;;;40.00;9.35;;;8.30;95.70;;;;;;6156678;23;20089;-85
2021/12/24 13:24:43;;;;;;;23.02;9.07;;;8.30;95.90;;;;;;6157031;23;20253;-85
2021/12/24 13:27:38;;;;;;;38.42;9.10;;;8.30;95.90;;;;;;6156448;23;20052;-86
2021/12/24 13:30:35;;;;;;;37.70;9.48;;;8.30;95.90;;;;;;6150299;23;20818;-86
2021/12/24 13:33:21;;;;;;;32.20;8.82;;;8.20;96.00;;;;;;6158370;23;20579;-85
2021/12/24 13:36:05;;;;;;;23.27;7.90;;;8.20;96.00;;;;;;6177687;23;20918;-86
2021/12/24 13:39:14;;;;;;;37.05;8.07;;;8.20;96.00;;;;;;6096292;23;20742;-86
2021/12/24 13:42:24;;;;;;;26.90;7.93;;;8.20;96.10;;;;;;6155630;23;20026;-85
2021/12/24 13:45:16;;;;;;;28.02;7.90;;;8.20;96.10;;;;;;6138482;23;20535;-85
2021/12/24 13:48:08;;;;;;;32.20;8.25;;;8.20;96.20;;;;;;6157379;23;20022;-86
2021/12/24 13:57:19;;;;;;;27.92;7.53;;;8.20;96.20;;;;;;6158997;23;20854;-85
2021/12/24 13:59:56;;;;;;;26.15;6.65;;;8.20;96.30;;;;;;6158386;23;20034;-86
2021/12/24 14:03:03;;;;;;;27.77;7.38;;;8.20;96.30;;;;;;6158501;23;20026;-85
2021/12/24 14:08:49;;;;;;;24.73;6.63;;;8.10;96.30;;;;;;6152457;23;20058;-85
2021/12/24 14:11:51;;;;;;;20.38;6.25;;;8.10;96.30;;;;;;6156700;23;20022;-85
2021/12/24 14:15:09;;;;;;;22.95;6.97;;;8.10;96.40;;;;;;6154038;23;20018;-86
2021/12/24 14:18:19;;;;;;;26.75;6.47;;;8.10;96.40;;;;;;6156588;23;20479;-85
2021/12/24 14:23:33;;;;;;;21.48;5.10;;;8.10;96.40;;;;;;6187577;23;20032;-85
2021/12/24 14:26:55;;;;;;;17.85;4.65;;;8.10;96.50;;;;;;6187921;23;20782;-85
2021/12/24 14:29:30;;;;;;;17.05;3.83;;;8.10;96.40;;;;;;6121350;23;20565;-85
2021/12/24 14:32:12;;;;;;;12.82;4.10;;;8.10;96.40;;;;;;6187320;23;20113;-85
2021/12/24 14:34:48;;;;;;;16.50;4.78;;;8.10;96.50;;;;;;6186841;23;20351;-85
2021/12/24 14:37:29;;;;;;;13.02;4.05;;;8.10;96.40;;;;;;6187702;23;20022;-85
2021/12/24 14:40:15;;;;;;;18.00;4.65;;;8.10;96.50;;;;;;6161378;23;20026;-85
2021/12/24 14:42:51;;;;;;;13.70;4.03;;;8.10;96.50;;;;;;6187032;23;20797;-85
2021/12/24 14:45:20;;;;;;;16.30;4.97;;;8.10;96.50;;;;;;6188012;23;20108;-85
2021/12/24 14:48:08;;;;;;;18.67;5.13;;;8.10;96.50;;;;;;6181806;23;20742;-84
2021/12/24 14:51:02;;;;;;;13.30;4.70;;;8.00;96.50;;;;;;6162872;23;20018;-85
2021/12/24 14:54:20;;;;;;;12.88;4.68;;;8.00;96.50;;;;;;6187815;23;20022;-85
2021/12/24 14:57:05;;;;;;;9.50;3.30;;;8.00;96.50;;;;;;6162491;23;20501;-85
2021/12/24 14:59:54;;;;;;;4.45;2.13;;;7.90;96.20;;;;;;6187406;23;20061;-85
2021/12/24 15:02:39;;;;;;;6.32;1.90;;;7.80;95.90;;;;;;6186574;23;20026;-85
2021/12/24 15:07:58;;;;;;;3.55;1.92;;;7.60;95.70;;;;;;6187766;23;20411;-85
2021/12/24 15:10:32;;;;;;;3.30;1.58;;;7.60;95.60;;;;;;6188199;23;20032;-85
2021/12/24 15:13:20;;;;;;;3.80;2.08;;;7.50;95.40;;;;;;6187749;23;20018;-85
2021/12/24 15:15:51;;;;;;;6.53;2.13;;;7.40;95.50;;;;;;6187954;23;20056;-85
2021/12/24 15:18:21;;;;;;;5.45;2.30;;;7.30;95.50;;;;;;6187359;23;20878;-85
2021/12/24 15:20:51;;;;;;;5.78;2.80;;;7.20;95.50;;;;;;6185260;23;20025;-84
2021/12/24 15:23:47;;;;;;;6.70;2.40;;;7.20;95.50;;;;;;6187011;23;20032;-86
2021/12/24 15:26:22;;;;;;;5.75;2.55;;;7.10;95.50;;;;;;6187505;23;20025;-83
2021/12/24 15:29:07;;;;;;;6.05;3.33;;;7.00;95.50;;;;;;6183094;23;20076;-85
2021/12/24 15:31:36;;;;;;;5.83;2.63;;;7.00;95.60;;;;;;6187105;23;20435;-85
2021/12/24 15:34:14;;;;;;;5.53;3.10;;;6.90;95.60;;;;;;6187957;23;20237;-85
2021/12/24 15:36:41;;;;;;;;;;;6.90;95.70;;;;;;6186497;23;20033;-85
2021/12/24 15:39:17;;;;;;;6.82;4.18;;;6.80;95.70;;;;;;6187202;23;19920;-85
2021/12/24 16:01:50;;;;;;;8.63;4.60;;;6.60;95.90;;;;;;5166569;27;20922;-81